sensor_id;sensor_type;location;lat;lon;timestamp;P1;durP1;ratioP1;P2;durP2;ratioP2
51560;SDS011;37654;51.262;17.058;2023-03-15T00:01:00;12.88;;;5.40;;
51560;SDS011;37654;51.262;17.058;2023-03-15T00:03:25;11.57;;;5.30;;
51560;SDS011;37654;51.262;17.058;2023-03-15T00:05:50;15.02;;;6.18;;
51560;SDS011;37654;51.262;17.058;2023-03-15T00:08:18;17.83;;;5.30;;
51560;SDS011;37654;51.262;17.058;2023-03-15T00:10:46;9.43;;;4.60;;
51560;SDS011;37654;51.262;17.058;2023-03-15T00:13:11;14.20;;;5.72;;
51560;SDS011;37654;51.262;17.058;2023-03-15T00:15:43;14.93;;;6.15;;
51560;SDS011;37654;51.262;17.058;2023-03-15T00:18:08;16.42;;;5.35;;
51560;SDS011;37654;51.262;17.058;2023-03-15T00:20:35;15.98;;;5.28;;
51560;SDS011;37654;51.262;17.058;2023-03-15T00:23:01;17.35;;;4.15;;
51560;SDS011;37654;51.262;17.058;2023-03-15T00:25:26;12.32;;;4.82;;
51560;SDS011;37654;51.262;17.058;2023-03-15T00:27:51;13.63;;;4.50;;
51560;SDS011;37654;51.262;17.058;2023-03-15T00:30:17;10.98;;;4.63;;
51560;SDS011;37654;51.262;17.058;2023-03-15T00:32:42;18.40;;;4.80;;
51560;SDS011;37654;51.262;17.058;2023-03-15T00:35:08;13.25;;;4.30;;
51560;SDS011;37654;51.262;17.058;2023-03-15T00:37:35;12.82;;;4.43;;
51560;SDS011;37654;51.262;17.058;2023-03-15T00:40:01;14.45;;;4.50;;
51560;SDS011;37654;51.262;17.058;2023-03-15T00:42:27;16.95;;;4.55;;
51560;SDS011;37654;51.262;17.058;2023-03-15T00:44:52;12.07;;;4.22;;
51560;SDS011;37654;51.262;17.058;2023-03-15T00:47:19;10.43;;;3.63;;
51560;SDS011;37654;51.262;17.058;2023-03-15T00:49:45;11.48;;;3.80;;
51560;SDS011;37654;51.262;17.058;2023-03-15T00:52:10;15.98;;;4.25;;
51560;SDS011;37654;51.262;17.058;2023-03-15T00:54:36;11.13;;;4.10;;
51560;SDS011;37654;51.262;17.058;2023-03-15T00:57:02;15.23;;;3.80;;
51560;SDS011;37654;51.262;17.058;2023-03-15T00:59:28;12.68;;;3.97;;
51560;SDS011;37654;51.262;17.058;2023-03-15T01:02:02;16.58;;;3.85;;
51560;SDS011;37654;51.262;17.058;2023-03-15T01:04:28;14.05;;;3.70;;
51560;SDS011;37654;51.262;17.058;2023-03-15T01:06:53;7.20;;;2.88;;
51560;SDS011;37654;51.262;17.058;2023-03-15T01:09:18;16.35;;;4.10;;
51560;SDS011;37654;51.262;17.058;2023-03-15T01:11:43;13.20;;;3.60;;
51560;SDS011;37654;51.262;17.058;2023-03-15T01:14:09;13.73;;;2.90;;
51560;SDS011;37654;51.262;17.058;2023-03-15T01:16:34;16.50;;;3.13;;
51560;SDS011;37654;51.262;17.058;2023-03-15T01:18:59;14.38;;;3.10;;
51560;SDS011;37654;51.262;17.058;2023-03-15T01:21:25;16.95;;;3.45;;
51560;SDS011;37654;51.262;17.058;2023-03-15T01:23:50;11.48;;;3.15;;
51560;SDS011;37654;51.262;17.058;2023-03-15T01:26:16;18.98;;;3.10;;
51560;SDS011;37654;51.262;17.058;2023-03-15T01:28:41;17.25;;;3.70;;
51560;SDS011;37654;51.262;17.058;2023-03-15T01:31:17;16.98;;;3.65;;
51560;SDS011;37654;51.262;17.058;2023-03-15T01:33:43;11.68;;;3.90;;
51560;SDS011;37654;51.262;17.058;2023-03-15T01:36:09;14.20;;;4.22;;
51560;SDS011;37654;51.262;17.058;2023-03-15T01:38:34;6.05;;;2.72;;
51560;SDS011;37654;51.262;17.058;2023-03-15T01:41:00;11.80;;;3.53;;
51560;SDS011;37654;51.262;17.058;2023-03-15T01:43:26;12.50;;;3.47;;
51560;SDS011;37654;51.262;17.058;2023-03-15T01:48:16;11.23;;;3.23;;
51560;SDS011;37654;51.262;17.058;2023-03-15T01:50:42;15.77;;;3.17;;
51560;SDS011;37654;51.262;17.058;2023-03-15T01:53:08;12.20;;;2.67;;
51560;SDS011;37654;51.262;17.058;2023-03-15T01:55:33;15.98;;;3.00;;
51560;SDS011;37654;51.262;17.058;2023-03-15T01:57:59;19.08;;;3.45;;
51560;SDS011;37654;51.262;17.058;2023-03-15T02:00:24;14.32;;;2.90;;
51560;SDS011;37654;51.262;17.058;2023-03-15T02:02:54;15.75;;;3.42;;
51560;SDS011;37654;51.262;17.058;2023-03-15T02:05:26;11.18;;;2.80;;
51560;SDS011;37654;51.262;17.058;2023-03-15T02:07:52;11.30;;;2.78;;
51560;SDS011;37654;51.262;17.058;2023-03-15T02:12:57;16.73;;;5.32;;
51560;SDS011;37654;51.262;17.058;2023-03-15T02:15:23;13.20;;;2.50;;
51560;SDS011;37654;51.262;17.058;2023-03-15T02:17:48;12.85;;;2.72;;
51560;SDS011;37654;51.262;17.058;2023-03-15T02:20:23;12.27;;;2.63;;
51560;SDS011;37654;51.262;17.058;2023-03-15T02:23:01;10.93;;;2.50;;
51560;SDS011;37654;51.262;17.058;2023-03-15T02:28:07;9.40;;;2.10;;
51560;SDS011;37654;51.262;17.058;2023-03-15T02:30:34;12.73;;;2.67;;
51560;SDS011;37654;51.262;17.058;2023-03-15T02:33:00;12.68;;;2.63;;
51560;SDS011;37654;51.262;17.058;2023-03-15T02:35:28;8.05;;;2.15;;
51560;SDS011;37654;51.262;17.058;2023-03-15T02:37:54;9.48;;;1.95;;
51560;SDS011;37654;51.262;17.058;2023-03-15T02:40:21;14.40;;;2.15;;
51560;SDS011;37654;51.262;17.058;2023-03-15T02:42:47;12.82;;;2.30;;
51560;SDS011;37654;51.262;17.058;2023-03-15T02:45:15;11.85;;;2.00;;
51560;SDS011;37654;51.262;17.058;2023-03-15T02:47:41;12.35;;;2.00;;
51560;SDS011;37654;51.262;17.058;2023-03-15T02:50:07;15.07;;;2.40;;
51560;SDS011;37654;51.262;17.058;2023-03-15T02:52:32;20.45;;;3.38;;
51560;SDS011;37654;51.262;17.058;2023-03-15T02:54:57;7.90;;;2.20;;
51560;SDS011;37654;51.262;17.058;2023-03-15T02:57:23;12.20;;;2.60;;
51560;SDS011;37654;51.262;17.058;2023-03-15T02:59:48;11.32;;;2.72;;
51560;SDS011;37654;51.262;17.058;2023-03-15T03:02:14;9.32;;;2.03;;
51560;SDS011;37654;51.262;17.058;2023-03-15T03:04:40;8.00;;;2.35;;
51560;SDS011;37654;51.262;17.058;2023-03-15T03:07:05;11.00;;;2.33;;
51560;SDS011;37654;51.262;17.058;2023-03-15T03:09:31;14.73;;;2.10;;
51560;SDS011;37654;51.262;17.058;2023-03-15T03:11:56;10.07;;;2.50;;
51560;SDS011;37654;51.262;17.058;2023-03-15T03:14:22;8.27;;;2.25;;
51560;SDS011;37654;51.262;17.058;2023-03-15T03:16:50;10.05;;;2.60;;
51560;SDS011;37654;51.262;17.058;2023-03-15T03:19:15;12.57;;;2.70;;
51560;SDS011;37654;51.262;17.058;2023-03-15T03:21:41;12.38;;;2.00;;
51560;SDS011;37654;51.262;17.058;2023-03-15T03:24:10;11.25;;;1.85;;
51560;SDS011;37654;51.262;17.058;2023-03-15T03:26:35;16.58;;;2.78;;
51560;SDS011;37654;51.262;17.058;2023-03-15T03:29:02;11.93;;;2.67;;
51560;SDS011;37654;51.262;17.058;2023-03-15T03:31:27;19.95;;;3.65;;
51560;SDS011;37654;51.262;17.058;2023-03-15T03:33:54;19.05;;;3.90;;
51560;SDS011;37654;51.262;17.058;2023-03-15T03:36:19;15.60;;;3.50;;
51560;SDS011;37654;51.262;17.058;2023-03-15T03:38:45;16.20;;;3.03;;
51560;SDS011;37654;51.262;17.058;2023-03-15T03:41:11;14.88;;;3.42;;
51560;SDS011;37654;51.262;17.058;2023-03-15T03:43:37;12.85;;;2.78;;
51560;SDS011;37654;51.262;17.058;2023-03-15T03:46:02;14.07;;;4.13;;
51560;SDS011;37654;51.262;17.058;2023-03-15T03:48:28;12.52;;;2.78;;
51560;SDS011;37654;51.262;17.058;2023-03-15T03:50:53;19.95;;;3.13;;
51560;SDS011;37654;51.262;17.058;2023-03-15T03:53:18;9.68;;;2.40;;
51560;SDS011;37654;51.262;17.058;2023-03-15T03:55:44;13.45;;;3.38;;
51560;SDS011;37654;51.262;17.058;2023-03-15T03:58:10;15.27;;;3.05;;
51560;SDS011;37654;51.262;17.058;2023-03-15T04:00:35;16.25;;;2.72;;
51560;SDS011;37654;51.262;17.058;2023-03-15T04:03:01;14.38;;;3.38;;
51560;SDS011;37654;51.262;17.058;2023-03-15T04:05:26;14.35;;;2.78;;
51560;SDS011;37654;51.262;17.058;2023-03-15T04:07:52;14.13;;;2.53;;
51560;SDS011;37654;51.262;17.058;2023-03-15T04:10:17;11.02;;;2.67;;
51560;SDS011;37654;51.262;17.058;2023-03-15T04:12:42;11.35;;;3.30;;
51560;SDS011;37654;51.262;17.058;2023-03-15T04:15:08;13.18;;;2.58;;
51560;SDS011;37654;51.262;17.058;2023-03-15T04:17:35;13.52;;;2.50;;
51560;SDS011;37654;51.262;17.058;2023-03-15T04:20:01;11.10;;;2.58;;
51560;SDS011;37654;51.262;17.058;2023-03-15T04:22:26;14.10;;;2.70;;
51560;SDS011;37654;51.262;17.058;2023-03-15T04:24:51;14.80;;;3.13;;
51560;SDS011;37654;51.262;17.058;2023-03-15T04:27:18;17.75;;;3.47;;
51560;SDS011;37654;51.262;17.058;2023-03-15T04:29:43;16.10;;;4.10;;
51560;SDS011;37654;51.262;17.058;2023-03-15T04:32:09;14.45;;;2.85;;
51560;SDS011;37654;51.262;17.058;2023-03-15T04:34:34;15.68;;;3.53;;
51560;SDS011;37654;51.262;17.058;2023-03-15T04:37:03;25.17;;;5.03;;
51560;SDS011;37654;51.262;17.058;2023-03-15T04:39:29;12.82;;;2.55;;
51560;SDS011;37654;51.262;17.058;2023-03-15T04:41:54;17.67;;;3.03;;
51560;SDS011;37654;51.262;17.058;2023-03-15T04:44:19;18.25;;;2.80;;
51560;SDS011;37654;51.262;17.058;2023-03-15T04:46:45;11.05;;;2.60;;
51560;SDS011;37654;51.262;17.058;2023-03-15T04:49:10;11.85;;;2.53;;
51560;SDS011;37654;51.262;17.058;2023-03-15T04:51:35;19.17;;;5.80;;
51560;SDS011;37654;51.262;17.058;2023-03-15T04:54:01;20.17;;;3.75;;
51560;SDS011;37654;51.262;17.058;2023-03-15T04:56:27;11.05;;;3.03;;
51560;SDS011;37654;51.262;17.058;2023-03-15T04:58:52;21.10;;;3.97;;
51560;SDS011;37654;51.262;17.058;2023-03-15T05:01:17;13.05;;;2.95;;
51560;SDS011;37654;51.262;17.058;2023-03-15T05:03:43;10.15;;;2.75;;
51560;SDS011;37654;51.262;17.058;2023-03-15T05:06:08;16.73;;;3.15;;
51560;SDS011;37654;51.262;17.058;2023-03-15T05:08:34;10.52;;;3.00;;
51560;SDS011;37654;51.262;17.058;2023-03-15T05:11:00;15.25;;;2.95;;
51560;SDS011;37654;51.262;17.058;2023-03-15T05:13:26;21.85;;;3.63;;
51560;SDS011;37654;51.262;17.058;2023-03-15T05:15:51;13.48;;;3.90;;
51560;SDS011;37654;51.262;17.058;2023-03-15T05:18:16;22.73;;;3.75;;
51560;SDS011;37654;51.262;17.058;2023-03-15T05:20:41;15.00;;;4.63;;
51560;SDS011;37654;51.262;17.058;2023-03-15T05:23:07;13.43;;;3.63;;
51560;SDS011;37654;51.262;17.058;2023-03-15T05:25:32;18.30;;;3.50;;
51560;SDS011;37654;51.262;17.058;2023-03-15T05:27:57;14.20;;;3.83;;
51560;SDS011;37654;51.262;17.058;2023-03-15T05:30:23;14.27;;;4.03;;
51560;SDS011;37654;51.262;17.058;2023-03-15T05:32:48;11.98;;;4.35;;
51560;SDS011;37654;51.262;17.058;2023-03-15T05:35:14;23.45;;;5.68;;
51560;SDS011;37654;51.262;17.058;2023-03-15T05:37:39;16.33;;;7.05;;
51560;SDS011;37654;51.262;17.058;2023-03-15T05:40:04;23.33;;;7.40;;
51560;SDS011;37654;51.262;17.058;2023-03-15T05:42:33;19.67;;;6.50;;
51560;SDS011;37654;51.262;17.058;2023-03-15T05:44:59;34.90;;;6.72;;
51560;SDS011;37654;51.262;17.058;2023-03-15T05:47:24;22.42;;;5.75;;
51560;SDS011;37654;51.262;17.058;2023-03-15T05:49:49;23.88;;;6.28;;
51560;SDS011;37654;51.262;17.058;2023-03-15T05:52:16;26.00;;;5.72;;
51560;SDS011;37654;51.262;17.058;2023-03-15T05:54:41;23.92;;;4.88;;
51560;SDS011;37654;51.262;17.058;2023-03-15T05:57:06;13.02;;;4.53;;
51560;SDS011;37654;51.262;17.058;2023-03-15T05:59:32;19.05;;;3.92;;
51560;SDS011;37654;51.262;17.058;2023-03-15T06:01:57;16.67;;;3.30;;
51560;SDS011;37654;51.262;17.058;2023-03-15T06:04:23;20.73;;;3.30;;
51560;SDS011;37654;51.262;17.058;2023-03-15T06:06:48;17.10;;;3.25;;
51560;SDS011;37654;51.262;17.058;2023-03-15T06:09:14;17.95;;;3.22;;
51560;SDS011;37654;51.262;17.058;2023-03-15T06:11:39;16.70;;;3.58;;
51560;SDS011;37654;51.262;17.058;2023-03-15T06:14:04;21.95;;;3.75;;
51560;SDS011;37654;51.262;17.058;2023-03-15T06:16:29;10.73;;;2.78;;
51560;SDS011;37654;51.262;17.058;2023-03-15T06:18:55;17.23;;;3.42;;
51560;SDS011;37654;51.262;17.058;2023-03-15T06:21:20;22.10;;;3.58;;
51560;SDS011;37654;51.262;17.058;2023-03-15T06:23:45;23.55;;;5.25;;
51560;SDS011;37654;51.262;17.058;2023-03-15T06:26:11;13.10;;;2.75;;
51560;SDS011;37654;51.262;17.058;2023-03-15T06:28:38;22.92;;;4.45;;
51560;SDS011;37654;51.262;17.058;2023-03-15T06:31:07;13.60;;;3.67;;
51560;SDS011;37654;51.262;17.058;2023-03-15T06:33:32;15.63;;;2.90;;
51560;SDS011;37654;51.262;17.058;2023-03-15T06:35:57;19.38;;;3.42;;
51560;SDS011;37654;51.262;17.058;2023-03-15T06:38:23;13.83;;;2.60;;
51560;SDS011;37654;51.262;17.058;2023-03-15T06:40:48;11.52;;;3.33;;
51560;SDS011;37654;51.262;17.058;2023-03-15T06:43:13;24.30;;;9.02;;
51560;SDS011;37654;51.262;17.058;2023-03-15T06:45:43;33.67;;;12.73;;
51560;SDS011;37654;51.262;17.058;2023-03-15T06:48:09;24.10;;;6.90;;
51560;SDS011;37654;51.262;17.058;2023-03-15T06:50:34;11.52;;;3.00;;
51560;SDS011;37654;51.262;17.058;2023-03-15T06:53:00;14.80;;;2.55;;
51560;SDS011;37654;51.262;17.058;2023-03-15T06:55:26;15.18;;;3.40;;
51560;SDS011;37654;51.262;17.058;2023-03-15T06:57:51;16.27;;;4.28;;
51560;SDS011;37654;51.262;17.058;2023-03-15T07:00:17;12.43;;;2.30;;
51560;SDS011;37654;51.262;17.058;2023-03-15T07:02:42;14.00;;;2.65;;
51560;SDS011;37654;51.262;17.058;2023-03-15T07:05:08;11.50;;;3.55;;
51560;SDS011;37654;51.262;17.058;2023-03-15T07:07:33;14.55;;;3.45;;
51560;SDS011;37654;51.262;17.058;2023-03-15T07:09:58;16.37;;;3.23;;
51560;SDS011;37654;51.262;17.058;2023-03-15T07:12:24;15.93;;;3.03;;
51560;SDS011;37654;51.262;17.058;2023-03-15T07:14:49;12.82;;;2.78;;
51560;SDS011;37654;51.262;17.058;2023-03-15T07:17:14;10.07;;;2.57;;
51560;SDS011;37654;51.262;17.058;2023-03-15T07:19:39;10.40;;;2.70;;
51560;SDS011;37654;51.262;17.058;2023-03-15T07:22:05;12.30;;;3.30;;
51560;SDS011;37654;51.262;17.058;2023-03-15T07:24:30;16.10;;;4.55;;
51560;SDS011;37654;51.262;17.058;2023-03-15T07:26:55;12.77;;;3.92;;
51560;SDS011;37654;51.262;17.058;2023-03-15T07:29:21;15.40;;;4.13;;
51560;SDS011;37654;51.262;17.058;2023-03-15T07:31:47;11.50;;;3.10;;
51560;SDS011;37654;51.262;17.058;2023-03-15T07:34:13;12.23;;;2.75;;
51560;SDS011;37654;51.262;17.058;2023-03-15T07:36:38;13.13;;;3.37;;
51560;SDS011;37654;51.262;17.058;2023-03-15T07:39:03;13.70;;;3.73;;
51560;SDS011;37654;51.262;17.058;2023-03-15T07:41:29;9.40;;;2.90;;
51560;SDS011;37654;51.262;17.058;2023-03-15T07:43:55;12.55;;;3.22;;
51560;SDS011;37654;51.262;17.058;2023-03-15T07:46:20;12.13;;;3.60;;
51560;SDS011;37654;51.262;17.058;2023-03-15T07:48:45;10.83;;;2.57;;
51560;SDS011;37654;51.262;17.058;2023-03-15T07:51:10;7.80;;;2.60;;
51560;SDS011;37654;51.262;17.058;2023-03-15T07:53:36;11.77;;;3.73;;
51560;SDS011;37654;51.262;17.058;2023-03-15T07:56:01;11.57;;;5.40;;
51560;SDS011;37654;51.262;17.058;2023-03-15T07:58:26;18.17;;;3.63;;
51560;SDS011;37654;51.262;17.058;2023-03-15T08:00:55;9.93;;;2.72;;
51560;SDS011;37654;51.262;17.058;2023-03-15T08:03:21;10.68;;;2.47;;
51560;SDS011;37654;51.262;17.058;2023-03-15T08:05:48;6.65;;;2.33;;
51560;SDS011;37654;51.262;17.058;2023-03-15T08:08:13;9.97;;;3.07;;
51560;SDS011;37654;51.262;17.058;2023-03-15T08:10:38;12.33;;;3.00;;
51560;SDS011;37654;51.262;17.058;2023-03-15T08:13:03;11.63;;;2.53;;
51560;SDS011;37654;51.262;17.058;2023-03-15T08:15:29;7.67;;;2.70;;
51560;SDS011;37654;51.262;17.058;2023-03-15T08:18:00;13.00;;;3.03;;
51560;SDS011;37654;51.262;17.058;2023-03-15T08:20:25;7.00;;;2.10;;
51560;SDS011;37654;51.262;17.058;2023-03-15T08:22:51;14.52;;;3.25;;
51560;SDS011;37654;51.262;17.058;2023-03-15T08:25:18;13.57;;;2.85;;
51560;SDS011;37654;51.262;17.058;2023-03-15T08:27:44;8.88;;;2.88;;
51560;SDS011;37654;51.262;17.058;2023-03-15T08:30:10;6.80;;;2.08;;
51560;SDS011;37654;51.262;17.058;2023-03-15T08:32:36;11.40;;;2.72;;
51560;SDS011;37654;51.262;17.058;2023-03-15T08:35:02;9.90;;;2.63;;
51560;SDS011;37654;51.262;17.058;2023-03-15T08:37:27;9.95;;;3.10;;
51560;SDS011;37654;51.262;17.058;2023-03-15T08:39:52;10.40;;;2.85;;
51560;SDS011;37654;51.262;17.058;2023-03-15T08:42:25;11.60;;;2.30;;
51560;SDS011;37654;51.262;17.058;2023-03-15T08:44:50;11.32;;;2.95;;
51560;SDS011;37654;51.262;17.058;2023-03-15T08:47:15;12.63;;;2.60;;
51560;SDS011;37654;51.262;17.058;2023-03-15T08:49:40;12.37;;;2.87;;
51560;SDS011;37654;51.262;17.058;2023-03-15T08:52:06;10.07;;;2.50;;
51560;SDS011;37654;51.262;17.058;2023-03-15T08:54:31;10.55;;;2.60;;
51560;SDS011;37654;51.262;17.058;2023-03-15T08:56:56;7.90;;;2.17;;
51560;SDS011;37654;51.262;17.058;2023-03-15T08:59:22;10.90;;;3.00;;
51560;SDS011;37654;51.262;17.058;2023-03-15T09:01:47;12.43;;;2.70;;
51560;SDS011;37654;51.262;17.058;2023-03-15T09:04:12;8.07;;;2.47;;
51560;SDS011;37654;51.262;17.058;2023-03-15T09:06:38;9.48;;;2.25;;
51560;SDS011;37654;51.262;17.058;2023-03-15T09:09:03;12.93;;;2.17;;
51560;SDS011;37654;51.262;17.058;2023-03-15T09:11:28;8.63;;;2.00;;
51560;SDS011;37654;51.262;17.058;2023-03-15T09:13:53;9.13;;;2.10;;
51560;SDS011;37654;51.262;17.058;2023-03-15T09:16:19;8.80;;;2.00;;
51560;SDS011;37654;51.262;17.058;2023-03-15T09:18:44;8.82;;;1.95;;
51560;SDS011;37654;51.262;17.058;2023-03-15T09:21:09;9.60;;;2.17;;
51560;SDS011;37654;51.262;17.058;2023-03-15T09:23:35;10.27;;;2.20;;
51560;SDS011;37654;51.262;17.058;2023-03-15T09:26:00;5.43;;;1.70;;
51560;SDS011;37654;51.262;17.058;2023-03-15T09:28:25;10.65;;;2.03;;
51560;SDS011;37654;51.262;17.058;2023-03-15T09:30:51;8.18;;;1.75;;
51560;SDS011;37654;51.262;17.058;2023-03-15T09:33:16;14.38;;;2.97;;
51560;SDS011;37654;51.262;17.058;2023-03-15T09:35:41;13.43;;;2.90;;
51560;SDS011;37654;51.262;17.058;2023-03-15T09:38:07;8.67;;;2.17;;
51560;SDS011;37654;51.262;17.058;2023-03-15T09:40:33;9.50;;;2.92;;
51560;SDS011;37654;51.262;17.058;2023-03-15T09:51:05;11.45;;;2.10;;
51560;SDS011;37654;51.262;17.058;2023-03-15T09:55:58;15.87;;;3.17;;
51560;SDS011;37654;51.262;17.058;2023-03-15T09:58:25;9.60;;;3.22;;
51560;SDS011;37654;51.262;17.058;2023-03-15T10:00:57;11.93;;;3.40;;
51560;SDS011;37654;51.262;17.058;2023-03-15T10:06:09;12.68;;;2.90;;
51560;SDS011;37654;51.262;17.058;2023-03-15T10:08:36;11.13;;;2.92;;
51560;SDS011;37654;51.262;17.058;2023-03-15T10:13:40;9.45;;;2.78;;
51560;SDS011;37654;51.262;17.058;2023-03-15T10:16:18;9.20;;;2.20;;
51560;SDS011;37654;51.262;17.058;2023-03-15T10:18:48;9.32;;;2.42;;
51560;SDS011;37654;51.262;17.058;2023-03-15T10:22:00;5.95;;;2.30;;
51560;SDS011;37654;51.262;17.058;2023-03-15T10:24:08;8.55;;;2.67;;
51560;SDS011;37654;51.262;17.058;2023-03-15T10:26:36;13.38;;;2.50;;
51560;SDS011;37654;51.262;17.058;2023-03-15T10:29:03;12.48;;;2.95;;
51560;SDS011;37654;51.262;17.058;2023-03-15T10:31:36;9.00;;;2.15;;
51560;SDS011;37654;51.262;17.058;2023-03-15T10:34:02;7.07;;;2.03;;
51560;SDS011;37654;51.262;17.058;2023-03-15T10:36:27;8.27;;;2.40;;
51560;SDS011;37654;51.262;17.058;2023-03-15T10:38:53;17.55;;;5.30;;
51560;SDS011;37654;51.262;17.058;2023-03-15T10:41:26;12.68;;;4.40;;
51560;SDS011;37654;51.262;17.058;2023-03-15T10:43:59;17.85;;;5.53;;
51560;SDS011;37654;51.262;17.058;2023-03-15T10:46:25;13.85;;;3.05;;
51560;SDS011;37654;51.262;17.058;2023-03-15T10:51:21;8.35;;;2.00;;
51560;SDS011;37654;51.262;17.058;2023-03-15T10:53:57;9.60;;;2.63;;
51560;SDS011;37654;51.262;17.058;2023-03-15T10:56:24;8.30;;;2.58;;
51560;SDS011;37654;51.262;17.058;2023-03-15T10:58:51;8.80;;;2.50;;
51560;SDS011;37654;51.262;17.058;2023-03-15T11:01:50;13.93;;;4.03;;
51560;SDS011;37654;51.262;17.058;2023-03-15T11:06:39;10.40;;;2.75;;
51560;SDS011;37654;51.262;17.058;2023-03-15T11:09:12;11.40;;;2.47;;
51560;SDS011;37654;51.262;17.058;2023-03-15T11:12:38;13.23;;;3.05;;
51560;SDS011;37654;51.262;17.058;2023-03-15T11:16:59;9.63;;;2.00;;
51560;SDS011;37654;51.262;17.058;2023-03-15T11:19:26;7.97;;;2.10;;
51560;SDS011;37654;51.262;17.058;2023-03-15T11:21:52;10.63;;;1.75;;
51560;SDS011;37654;51.262;17.058;2023-03-15T11:24:25;10.68;;;1.58;;
51560;SDS011;37654;51.262;17.058;2023-03-15T11:26:51;11.45;;;1.88;;
51560;SDS011;37654;51.262;17.058;2023-03-15T11:29:22;6.10;;;2.42;;
51560;SDS011;37654;51.262;17.058;2023-03-15T11:31:48;9.35;;;1.90;;
51560;SDS011;37654;51.262;17.058;2023-03-15T11:34:24;5.78;;;1.90;;
51560;SDS011;37654;51.262;17.058;2023-03-15T11:36:51;10.80;;;2.17;;
51560;SDS011;37654;51.262;17.058;2023-03-15T11:39:24;8.63;;;2.03;;
51560;SDS011;37654;51.262;17.058;2023-03-15T11:41:55;5.15;;;1.55;;
51560;SDS011;37654;51.262;17.058;2023-03-15T11:46:49;11.57;;;2.07;;
51560;SDS011;37654;51.262;17.058;2023-03-15T11:51:57;7.00;;;2.13;;
51560;SDS011;37654;51.262;17.058;2023-03-15T11:54:23;12.73;;;2.03;;
51560;SDS011;37654;51.262;17.058;2023-03-15T11:56:56;10.38;;;2.08;;
51560;SDS011;37654;51.262;17.058;2023-03-15T11:59:29;9.18;;;2.72;;
51560;SDS011;37654;51.262;17.058;2023-03-15T12:06:48;16.25;;;2.67;;
51560;SDS011;37654;51.262;17.058;2023-03-15T12:11:56;6.50;;;1.50;;
51560;SDS011;37654;51.262;17.058;2023-03-15T12:14:24;7.63;;;2.50;;
51560;SDS011;37654;51.262;17.058;2023-03-15T12:16:50;7.88;;;1.75;;
51560;SDS011;37654;51.262;17.058;2023-03-15T12:19:16;8.55;;;2.13;;
51560;SDS011;37654;51.262;17.058;2023-03-15T12:21:43;7.38;;;2.20;;
51560;SDS011;37654;51.262;17.058;2023-03-15T12:26:51;6.22;;;1.50;;
51560;SDS011;37654;51.262;17.058;2023-03-15T12:29:23;9.80;;;1.60;;
51560;SDS011;37654;51.262;17.058;2023-03-15T12:34:25;10.75;;;1.90;;
51560;SDS011;37654;51.262;17.058;2023-03-15T12:36:51;8.98;;;1.40;;
51560;SDS011;37654;51.262;17.058;2023-03-15T12:41:43;15.83;;;2.10;;
51560;SDS011;37654;51.262;17.058;2023-03-15T12:51:59;9.88;;;3.38;;
51560;SDS011;37654;51.262;17.058;2023-03-15T12:54:29;10.15;;;1.80;;
51560;SDS011;37654;51.262;17.058;2023-03-15T12:56:59;17.83;;;5.60;;
51560;SDS011;37654;51.262;17.058;2023-03-15T12:59:37;6.38;;;2.53;;
51560;SDS011;37654;51.262;17.058;2023-03-15T13:04:44;5.78;;;1.52;;
51560;SDS011;37654;51.262;17.058;2023-03-15T13:07:20;11.43;;;2.50;;
51560;SDS011;37654;51.262;17.058;2023-03-15T13:12:15;8.18;;;1.42;;
51560;SDS011;37654;51.262;17.058;2023-03-15T13:15:03;6.55;;;1.73;;
51560;SDS011;37654;51.262;17.058;2023-03-15T13:25:32;8.40;;;2.25;;
51560;SDS011;37654;51.262;17.058;2023-03-15T13:28:06;6.40;;;2.30;;
51560;SDS011;37654;51.262;17.058;2023-03-15T13:30:46;7.32;;;2.35;;
51560;SDS011;37654;51.262;17.058;2023-03-15T13:36:39;7.13;;;1.40;;
51560;SDS011;37654;51.262;17.058;2023-03-15T13:38:39;7.95;;;2.10;;
51560;SDS011;37654;51.262;17.058;2023-03-15T13:41:05;7.22;;;1.33;;
51560;SDS011;37654;51.262;17.058;2023-03-15T13:43:39;7.93;;;1.90;;
51560;SDS011;37654;51.262;17.058;2023-03-15T13:46:06;10.02;;;1.65;;
51560;SDS011;37654;51.262;17.058;2023-03-15T13:48:33;11.18;;;2.15;;
51560;SDS011;37654;51.262;17.058;2023-03-15T13:51:01;8.88;;;2.95;;
51560;SDS011;37654;51.262;17.058;2023-03-15T13:53:27;4.40;;;1.88;;
51560;SDS011;37654;51.262;17.058;2023-03-15T13:55:55;6.85;;;2.33;;
51560;SDS011;37654;51.262;17.058;2023-03-15T13:58:21;9.48;;;2.72;;
51560;SDS011;37654;51.262;17.058;2023-03-15T14:00:47;4.75;;;1.73;;
51560;SDS011;37654;51.262;17.058;2023-03-15T14:03:13;21.10;;;8.63;;
51560;SDS011;37654;51.262;17.058;2023-03-15T14:05:42;15.57;;;6.70;;
51560;SDS011;37654;51.262;17.058;2023-03-15T14:08:21;10.20;;;3.78;;
51560;SDS011;37654;51.262;17.058;2023-03-15T14:13:34;5.22;;;2.03;;
51560;SDS011;37654;51.262;17.058;2023-03-15T14:16:01;12.05;;;3.00;;
51560;SDS011;37654;51.262;17.058;2023-03-15T14:18:30;10.13;;;2.45;;
51560;SDS011;37654;51.262;17.058;2023-03-15T14:20:57;12.50;;;3.55;;
51560;SDS011;37654;51.262;17.058;2023-03-15T14:23:27;9.70;;;3.08;;
51560;SDS011;37654;51.262;17.058;2023-03-15T14:26:00;14.38;;;5.97;;
51560;SDS011;37654;51.262;17.058;2023-03-15T14:28:27;13.77;;;5.35;;
51560;SDS011;37654;51.262;17.058;2023-03-15T14:30:56;14.60;;;5.15;;
51560;SDS011;37654;51.262;17.058;2023-03-15T14:33:28;14.15;;;3.85;;
51560;SDS011;37654;51.262;17.058;2023-03-15T14:35:56;6.53;;;2.78;;
51560;SDS011;37654;51.262;17.058;2023-03-15T14:38:23;13.35;;;3.72;;
51560;SDS011;37654;51.262;17.058;2023-03-15T14:40:49;25.33;;;8.55;;
51560;SDS011;37654;51.262;17.058;2023-03-15T14:43:15;8.88;;;2.63;;
51560;SDS011;37654;51.262;17.058;2023-03-15T14:45:41;16.75;;;6.65;;
51560;SDS011;37654;51.262;17.058;2023-03-15T14:48:11;16.90;;;5.85;;
51560;SDS011;37654;51.262;17.058;2023-03-15T14:50:38;36.90;;;14.75;;
51560;SDS011;37654;51.262;17.058;2023-03-15T14:53:04;39.92;;;12.95;;
51560;SDS011;37654;51.262;17.058;2023-03-15T14:55:32;19.92;;;5.65;;
51560;SDS011;37654;51.262;17.058;2023-03-15T14:57:59;38.72;;;12.18;;
51560;SDS011;37654;51.262;17.058;2023-03-15T15:00:24;17.92;;;6.65;;
51560;SDS011;37654;51.262;17.058;2023-03-15T15:02:51;30.65;;;8.73;;
51560;SDS011;37654;51.262;17.058;2023-03-15T15:05:19;34.88;;;12.63;;
51560;SDS011;37654;51.262;17.058;2023-03-15T15:07:46;20.85;;;6.68;;
51560;SDS011;37654;51.262;17.058;2023-03-15T15:10:11;16.85;;;5.70;;
51560;SDS011;37654;51.262;17.058;2023-03-15T15:12:37;16.75;;;5.75;;
51560;SDS011;37654;51.262;17.058;2023-03-15T15:15:08;11.85;;;3.53;;
51560;SDS011;37654;51.262;17.058;2023-03-15T15:17:37;17.20;;;3.73;;
51560;SDS011;37654;51.262;17.058;2023-03-15T15:20:02;13.80;;;5.57;;
51560;SDS011;37654;51.262;17.058;2023-03-15T15:22:31;17.67;;;5.85;;
51560;SDS011;37654;51.262;17.058;2023-03-15T15:24:56;12.18;;;4.22;;
51560;SDS011;37654;51.262;17.058;2023-03-15T15:27:21;10.55;;;3.50;;
51560;SDS011;37654;51.262;17.058;2023-03-15T15:29:47;11.35;;;4.70;;
51560;SDS011;37654;51.262;17.058;2023-03-15T15:32:12;14.27;;;5.60;;
51560;SDS011;37654;51.262;17.058;2023-03-15T15:34:37;18.15;;;4.40;;
51560;SDS011;37654;51.262;17.058;2023-03-15T15:37:04;9.05;;;3.40;;
51560;SDS011;37654;51.262;17.058;2023-03-15T15:39:30;13.70;;;3.25;;